Mc Intosh, Florida
Current Conditions -  °F | °C
As of 2:53 AM on Wednesday 22 Oct 2014 (Local Time) from KGNV Reporting Station
Clear Clear  
Wind Chill: 60°   Ceiling: Unl
Heat Index: 60°   Visibility: 10mi
Dew Point: 59°   Wind: 5mph
Humidity: 96%   Direction: 340°NNW
Pressure: 29.95"   Gusts: NA
Location:  29.4411°N, 82.2461°W
Report Text: KGNV 220653Z AUTO 34004KT 10SM CLR 16/15 A2995 RMK AO2 SLP141 T01560150
Loading
Personal Weather Stations






























Interactive Weather Map
Tropical Storm Tracking
New forecast layout! Learn more

10-Day Weather Forecast

Advertisements
Track Severe Weather on mobile